• Join FlightAware (Why Join?)
  • Login
  • US Flag 
02:02PM EDT


 

Airport Tracker/Info


-or-


 

Live Flight TrackerFlight Track Log ✈ N188KM ✈ 30-Apr-2013 ✈ KCDW - KFRG

Flight Track Log - Related Links

Times and Time Zones

All times are in EDT time to prevent confusion due to time zone crossing. See the N188KM flight status page for this flight to view local times or setup timezone preferences in your user account.

Time Position Orientation Groundspeed Altitude Reporting Facility
EDT Latitude Longitude Course Direction KTS MPH feet Rate Location/Type
05:12PM 40.8333 -74.2667 75° East 104 120 1,800  Level New York TRACON
05:13PM 40.8000 -74.2500 159° South 111 128 2,800 900 Climbing New York TRACON
05:14PM 40.8000 -74.3000 270° West 123 142 3,700 840 Climbing New York TRACON
05:15PM 40.8333 -74.3000 360° North 115 132 4,500 720 Climbing New York TRACON
05:16PM 40.8667 -74.3000 360° North 120 138 5,200 660 Climbing New York TRACON
05:18PM 41.1556 -74.1056 75° East  Level FlightAware Approximate
05:18PM 40.8833 -74.2667 57° Northeast 118 136 6,000  Level New York TRACON
05:18PM 40.9167 -74.2333 37° Northeast 138 159 6,000  Level New York TRACON
05:20PM 40.9667 -74.2167 14° North 152 175 6,100  Climbing New York TRACON
05:20PM 41.0000 -74.2000 21° North 155 178 6,000 -60 Descending New York TRACON
05:21PM 41.0333 -74.1833 21° North 159 183 6,000  Level New York TRACON
05:23PM 41.0833 -74.1667 14° North 161 185 6,000  Level New York TRACON
05:24PM 41.1333 -74.1500 14° North 160 184 6,000  Level New York TRACON
05:25PM 41.1667 -74.1167 37° Northeast 163 188 6,000 -120 Level New York TRACON
05:25PM 41.1667 -74.0667 90° East 160 184 5,800 -420 Descending New York TRACON
05:26PM 41.1833 -74.0167 66° East 161 185 5,300 -480 Descending New York TRACON
05:27PM 41.2000 -73.9500 72° East 167 192 4,900 -180 Descending New York TRACON
05:28PM 41.2167 -73.9000 66° East 155 178 5,000  Climbing New York TRACON
05:29PM 41.2167 -73.8500 90° East 152 175 5,000  Level New York TRACON
05:30PM 41.2333 -73.8000 66° East 147 169 5,000  Level New York TRACON
05:31PM 41.2500 -73.7500 66° East 145 167 5,000  Level New York TRACON
05:32PM 41.2500 -73.7000 90° East 147 169 5,000  Level New York TRACON
05:33PM 41.2667 -73.6333 72° East 157 181 5,100  Climbing New York TRACON
05:35PM 41.2833 -73.5833 66° East 156 180 5,000 -60 Descending New York TRACON
05:36PM 41.2667 -73.5167 108° East 154 177 5,000  Level New York TRACON
05:36PM 41.2667 -73.4667 90° East 152 175 5,000  Level New York TRACON
05:37PM 41.2667 -73.4167 90° East 155 178 5,000  Level New York TRACON
05:38PM 41.2500 -73.3667 114° Southeast 151 174 5,100  Climbing New York TRACON
05:39PM 41.2500 -73.3000 90° East 153 176 5,000 -60 Descending New York TRACON
05:40PM 41.2333 -73.2500 114° Southeast 151 174 5,000  Level New York TRACON
05:41PM 41.2333 -73.2000 90° East 150 173 5,000  Level New York TRACON
05:42PM 41.2000 -73.1833 159° South 167 192 5,000  Level New York TRACON
05:43PM 41.1500 -73.2000 194° South 162 186 5,000  Level New York TRACON
05:44PM 41.1000 -73.2167 194° South 157 181 5,000 -300 Level New York TRACON
05:45PM 41.0667 -73.2333 201° Southwest 175 201 4,400 -600 Descending New York TRACON
05:46PM 41.0167 -73.2333 180° South 166 191 3,800 -660 Descending New York TRACON
05:47PM 40.9667 -73.2500 194° South 163 188 3,100 -420 Descending New York TRACON
05:48PM 40.9333 -73.2667 201° Southwest 150 173 3,000 -60 Descending New York TRACON
05:49PM 40.9000 -73.2833 201° Southwest 133 153 3,000 -180 Level New York TRACON
05:50PM 40.8667 -73.3167 217° Southwest 135 155 2,700 -360 Descending New York TRACON
05:52PM 40.8167 -73.3333 194° South 141 162 2,300 -480 Descending New York TRACON
05:52PM 40.8000 -73.3667 237° Southwest 144 166 1,800 -540 Descending New York TRACON
05:53PM 40.7667 -73.4167 229° Southwest 137 158 1,300 -720 Descending New York TRACON
05:54PM 40.7500 -73.4167 180° South 95 109 400 -900 Descending New York TRACON
05:56PM 40.7288 -73.4134 229° Southwest  Level Estimated
06:03PM 40.7288 -73.4134 229° Southwest  Level Estimated
06:04PM 40.7288 -73.4134 229° Southwest  Level Estimated